createdAt,value
2018-09-18T00:02:04.398Z,99756.70
2018-09-18T00:04:32.951Z,99759.13
2018-09-18T00:07:00.581Z,99755.44
2018-09-18T00:09:28.233Z,99757.80
2018-09-18T00:11:55.797Z,99757.64
2018-09-18T00:14:23.375Z,99752.81
2018-09-18T00:16:50.976Z,99748.83
2018-09-18T00:19:18.648Z,99749.32
2018-09-18T00:21:46.227Z,99743.47
2018-09-18T00:24:13.847Z,99743.14
2018-09-18T00:26:42.070Z,99735.61
2018-09-18T00:29:09.708Z,99733.97
2018-09-18T00:31:37.650Z,99735.84
2018-09-18T00:34:05.238Z,99727.80
2018-09-18T00:36:32.801Z,99725.63
2018-09-18T00:39:00.829Z,99727.50
2018-09-18T00:41:28.431Z,99736.08
2018-09-18T00:43:56.011Z,99730.22
2018-09-18T00:46:23.557Z,99726.68
2018-09-18T00:48:51.194Z,99722.20
2018-09-18T00:51:18.819Z,99719.89
2018-09-18T00:53:46.436Z,99724.95
2018-09-18T00:56:14.027Z,99721.78
2018-09-18T00:58:41.642Z,99727.34
2018-09-18T01:01:09.263Z,99726.30
2018-09-18T01:03:36.844Z,99726.94
2018-09-18T01:06:04.447Z,99730.56
2018-09-18T01:08:32.468Z,99729.84
2018-09-18T01:11:00.060Z,99724.39
2018-09-18T01:13:27.670Z,99726.17
2018-09-18T01:15:55.764Z,99720.94
2018-09-18T01:18:23.430Z,99720.22
2018-09-18T01:20:51.088Z,99715.09
2018-09-18T01:23:18.648Z,99719.79
2018-09-18T01:25:46.246Z,99720.42
2018-09-18T01:28:13.832Z,99715.23
2018-09-18T01:30:41.439Z,99722.94
2018-09-18T01:33:09.251Z,99719.06
2018-09-18T01:35:37.678Z,99718.87
2018-09-18T01:38:06.315Z,99714.37
2018-09-18T01:40:33.893Z,99717.53
2018-09-18T01:43:01.513Z,99709.14
2018-09-18T01:45:29.136Z,99712.66
2018-09-18T01:47:56.697Z,99706.19
2018-09-18T01:50:24.265Z,99709.82
2018-09-18T01:52:51.822Z,99702.58
2018-09-18T01:55:19.411Z,99700.69
2018-09-18T01:57:46.985Z,99697.20
2018-09-18T02:00:16.609Z,99694.40
2018-09-18T02:02:45.836Z,99694.42
2018-09-18T02:05:13.434Z,99692.09
2018-09-18T02:07:41.468Z,99698.01
2018-09-18T02:10:09.038Z,99683.30
2018-09-18T02:12:36.597Z,99686.84
2018-09-18T02:15:04.171Z,99683.00
2018-09-18T02:17:31.746Z,99686.84
2018-09-18T02:19:59.344Z,99687.52
2018-09-18T02:22:26.907Z,99686.19
2018-09-18T02:24:54.458Z,99685.19
2018-09-18T02:27:23.879Z,99690.36
2018-09-18T02:29:59.999Z,99685.80
2018-09-18T02:32:27.720Z,99693.47
2018-09-18T02:34:56.034Z,99684.17
2018-09-18T02:37:24.737Z,99681.61
2018-09-18T02:39:56.427Z,99683.56
2018-09-18T02:42:24.704Z,99679.35
2018-09-18T02:44:52.556Z,99685.20
2018-09-18T02:47:20.142Z,99675.11
2018-09-18T02:49:48.702Z,99676.27
2018-09-18T02:52:17.198Z,99674.06
2018-09-18T02:54:44.760Z,99670.70
2018-09-18T02:57:12.295Z,99666.64
2018-09-18T02:59:40.071Z,99669.66
2018-09-18T03:02:07.632Z,99667.64
2018-09-18T03:04:35.164Z,99664.44
2018-09-18T03:07:03.728Z,99674.02
2018-09-18T03:09:32.140Z,99666.83
2018-09-18T03:11:59.715Z,99666.34
2018-09-18T03:14:27.637Z,99663.09
2018-09-18T03:16:55.166Z,99663.51
2018-09-18T03:19:22.735Z,99654.17
2018-09-18T03:21:50.725Z,99653.88
2018-09-18T03:24:18.264Z,99647.86
2018-09-18T03:26:45.844Z,99641.97
2018-09-18T03:29:14.173Z,99640.64
2018-09-18T03:31:41.713Z,99639.45
2018-09-18T03:34:10.510Z,99639.46
2018-09-18T03:36:38.095Z,99637.27
2018-09-18T03:39:05.695Z,99633.42
2018-09-18T03:41:33.539Z,99638.45
2018-09-18T03:44:01.780Z,99632.41
2018-09-18T03:46:29.321Z,99628.37
2018-09-18T03:48:57.902Z,99632.06
2018-09-18T03:51:25.395Z,99631.41
2018-09-18T03:53:52.949Z,99631.06
2018-09-18T03:56:21.679Z,99623.98
2018-09-18T03:58:49.213Z,99629.38
2018-09-18T04:01:16.755Z,99629.36
2018-09-18T04:03:45.717Z,99630.84
2018-09-18T04:06:13.230Z,99626.84
2018-09-18T04:08:41.545Z,99622.31
2018-09-18T04:11:10.511Z,99621.31
2018-09-18T04:13:38.683Z,99623.84
2018-09-18T04:16:07.977Z,99619.61
2018-09-18T04:18:37.434Z,99615.06
2018-09-18T04:21:04.972Z,99608.48
2018-09-18T04:23:33.247Z,99615.86
2018-09-18T04:26:02.904Z,99610.96
2018-09-18T04:28:30.464Z,99610.61
2018-09-18T04:30:59.739Z,99605.03
2018-09-18T04:33:29.423Z,99606.46
2018-09-18T04:35:57.909Z,99597.11
2018-09-18T04:38:25.412Z,99593.02
2018-09-18T04:40:54.061Z,99597.01
2018-09-18T04:43:21.626Z,99593.02
2018-09-18T04:45:50.221Z,99586.09
2018-09-18T04:48:18.113Z,99584.67
2018-09-18T04:50:45.658Z,99586.33
2018-09-18T04:53:13.165Z,99590.31
2018-09-18T04:55:43.684Z,99585.17
2018-09-18T04:58:11.894Z,99582.55
2018-09-18T05:00:40.236Z,99580.98
2018-09-18T05:03:09.040Z,99590.91
2018-09-18T05:05:37.234Z,99582.02
2018-09-18T05:08:04.833Z,99579.53
2018-09-18T05:10:32.664Z,99582.89
2018-09-18T05:13:01.201Z,99583.22
2018-09-18T05:15:28.796Z,99579.30
2018-09-18T05:17:56.825Z,99582.27
2018-09-18T05:20:25.357Z,99581.06
2018-09-18T05:22:52.904Z,99583.21
2018-09-18T05:25:21.707Z,99579.47
2018-09-18T05:27:49.220Z,99577.56
2018-09-18T05:30:17.338Z,99575.98
2018-09-18T05:32:45.365Z,99578.47
2018-09-18T05:35:14.052Z,99576.24
2018-09-18T05:37:42.548Z,99582.46
2018-09-18T05:40:11.731Z,99577.21
2018-09-18T05:42:39.228Z,99578.53
2018-09-18T05:45:07.631Z,99579.53
2018-09-18T05:47:35.488Z,99583.20
2018-09-18T05:50:03.030Z,99584.87
2018-09-18T05:52:30.561Z,99584.30
2018-09-18T05:55:01.051Z,99586.80
2018-09-18T05:57:28.561Z,99580.87
2018-09-18T05:59:56.091Z,99579.66
2018-09-18T06:02:27.569Z,99580.69
2018-09-18T06:04:55.065Z,99573.97
2018-09-18T06:07:23.726Z,99567.05
2018-09-18T06:09:51.836Z,99569.89
2018-09-18T06:12:19.798Z,99566.16
2018-09-18T06:14:47.548Z,99563.45
2018-09-18T06:17:15.449Z,99565.09
2018-09-18T06:19:43.263Z,99567.55
2018-09-18T06:22:10.771Z,99569.39
2018-09-18T06:24:39.675Z,99571.45
2018-09-18T06:27:08.056Z,99572.66
2018-09-18T06:29:35.731Z,99569.18
2018-09-18T06:32:03.577Z,99572.59
2018-09-18T06:34:31.116Z,99570.73
2018-09-18T06:36:59.290Z,99572.91
2018-09-18T06:39:30.428Z,99570.64
2018-09-18T06:41:58.012Z,99575.05
2018-09-18T06:44:25.574Z,99576.33
2018-09-18T06:46:55.692Z,99575.87
2018-09-18T06:49:23.241Z,99578.46
2018-09-18T06:51:50.811Z,99579.63
2018-09-18T06:54:19.391Z,99572.88
2018-09-18T06:56:46.924Z,99571.55
2018-09-18T06:59:15.281Z,99565.78
2018-09-18T07:01:43.600Z,99570.52
2018-09-18T07:04:12.493Z,99559.58
2018-09-18T07:06:44.232Z,99562.28
2018-09-18T07:09:16.000Z,99562.20
2018-09-18T07:11:44.487Z,99560.11
2018-09-18T07:14:12.021Z,99558.02
2018-09-18T07:16:42.120Z,99560.05
2018-09-18T07:19:09.709Z,99558.53
2018-09-18T07:21:37.244Z,99563.52
2018-09-18T07:24:05.085Z,99566.23
2018-09-18T07:26:32.585Z,99557.47
2018-09-18T07:29:00.371Z,99562.46
2018-09-18T07:31:28.442Z,99555.25
2018-09-18T07:33:57.505Z,99558.26
2018-09-18T07:36:25.381Z,99558.54
2018-09-18T07:38:53.332Z,99560.48
2018-09-18T07:41:20.829Z,99564.31
2018-09-18T07:43:48.324Z,99558.31
2018-09-18T07:46:16.135Z,99560.44
2018-09-18T07:48:43.644Z,99564.16
2018-09-18T07:51:16.444Z,99553.63
2018-09-18T07:53:44.463Z,99558.99
2018-09-18T07:56:13.045Z,99560.78
2018-09-18T07:58:41.555Z,99555.80
2018-09-18T08:01:09.732Z,99557.67
2018-09-18T08:03:38.052Z,99557.36
2018-09-18T08:06:06.418Z,99552.01
2018-09-18T08:08:34.424Z,99542.02
2018-09-18T08:11:03.237Z,99547.38
2018-09-18T08:13:31.411Z,99549.34
2018-09-18T08:15:59.623Z,99537.70
2018-09-18T08:18:28.102Z,99546.04
2018-09-18T08:20:55.676Z,99544.20
2018-09-18T08:23:24.040Z,99539.64
2018-09-18T08:25:51.601Z,99544.97
2018-09-18T08:28:20.115Z,99535.47
2018-09-18T08:30:48.072Z,99541.56
2018-09-18T08:33:15.600Z,99540.02
2018-09-18T08:35:43.166Z,99545.73
2018-09-18T08:38:11.232Z,99542.55
2018-09-18T08:40:38.816Z,99543.67
2018-09-18T08:43:07.159Z,99539.43
2018-09-18T08:45:37.596Z,99535.70
2018-09-18T08:48:06.320Z,99537.97
2018-09-18T08:50:36.895Z,99535.36
2018-09-18T08:53:04.887Z,99534.56
2018-09-18T08:55:33.151Z,99538.13
2018-09-18T08:58:04.471Z,99533.98
2018-09-18T09:00:32.087Z,99527.44
2018-09-18T09:03:01.389Z,99526.31
2018-09-18T09:05:31.265Z,99536.13
2018-09-18T09:08:03.261Z,99520.40
2018-09-18T09:10:30.789Z,99522.05
2018-09-18T09:12:58.632Z,99526.76
2018-09-18T09:15:26.294Z,99519.47
2018-09-18T09:17:53.863Z,99519.58
2018-09-18T09:20:22.505Z,99528.69
2018-09-18T09:22:50.950Z,99515.53
2018-09-18T09:25:18.492Z,99519.63
2018-09-18T09:27:47.330Z,99523.00
2018-09-18T09:30:16.695Z,99517.17
2018-09-18T09:32:44.891Z,99518.97
2018-09-18T09:35:12.888Z,99521.57
2018-09-18T09:37:40.449Z,99519.45
2018-09-18T09:40:07.951Z,99519.61
2018-09-18T09:42:39.221Z,99520.97
2018-09-18T09:45:07.477Z,99519.69
2018-09-18T09:47:35.756Z,99517.09
2018-09-18T09:50:03.611Z,99509.61
2018-09-18T09:52:32.593Z,99514.41
2018-09-18T09:55:00.541Z,99524.12
2018-09-18T09:57:28.379Z,99513.87
2018-09-18T09:59:55.856Z,99512.11
2018-09-18T10:02:29.258Z,99514.94
2018-09-18T10:04:58.272Z,99514.19
2018-09-18T10:07:25.760Z,99517.93
2018-09-18T10:09:53.263Z,99515.36
2018-09-18T10:12:21.203Z,99516.90
2018-09-18T10:14:48.717Z,99513.40
2018-09-18T10:17:19.821Z,99512.59
2018-09-18T10:19:47.799Z,99519.27
2018-09-18T10:22:15.829Z,99511.97
2018-09-18T10:24:43.385Z,99516.25
2018-09-18T10:27:11.415Z,99496.09
2018-09-18T10:29:39.100Z,99497.66
2018-09-18T10:32:06.708Z,99504.14
2018-09-18T10:34:34.624Z,99506.84
2018-09-18T10:37:03.047Z,99504.11
2018-09-18T10:39:30.593Z,99501.97
2018-09-18T10:42:01.402Z,99495.10
2018-09-18T10:44:30.136Z,99497.84
2018-09-18T10:46:58.220Z,99503.17
2018-09-18T10:49:27.806Z,99508.16
2018-09-18T10:51:56.238Z,99507.61
2018-09-18T10:54:24.705Z,99512.80
2018-09-18T10:56:52.510Z,99502.09
2018-09-18T10:59:21.452Z,99501.61
2018-09-18T11:01:50.588Z,99503.78
2018-09-18T11:04:19.414Z,99509.95
2018-09-18T11:06:47.038Z,99513.88
2018-09-18T11:09:14.773Z,99507.16
2018-09-18T11:11:42.900Z,99505.87
2018-09-18T11:14:12.694Z,99506.52
2018-09-18T11:16:40.552Z,99508.00
2018-09-18T11:19:08.859Z,99506.66
2018-09-18T11:21:37.803Z,99503.65
2018-09-18T11:24:05.581Z,99501.25
2018-09-18T11:26:33.502Z,99500.07
2018-09-18T11:29:02.667Z,99501.03
2018-09-18T11:31:30.206Z,99497.37
2018-09-18T11:33:58.205Z,99494.27
2018-09-18T11:36:27.128Z,99504.10
2018-09-18T11:38:56.743Z,99509.67
2018-09-18T11:41:25.843Z,99501.22
2018-09-18T11:43:54.584Z,99494.84
2018-09-18T11:46:22.177Z,99504.44
2018-09-18T11:48:50.321Z,99506.88
2018-09-18T11:51:18.546Z,99494.25
2018-09-18T11:53:47.270Z,99505.34
2018-09-18T11:56:15.923Z,99500.63
2018-09-18T11:58:44.036Z,99493.71
2018-09-18T12:01:15.411Z,99490.86
2018-09-18T12:03:44.353Z,99480.53
2018-09-18T12:06:11.855Z,99477.79
2018-09-18T12:08:41.037Z,99471.47
2018-09-18T12:11:09.035Z,99467.50
2018-09-18T12:13:36.545Z,99474.02
2018-09-18T12:16:04.068Z,99460.61
2018-09-18T12:18:32.490Z,99478.62
2018-09-18T12:21:00.671Z,99469.25
2018-09-18T12:23:29.365Z,99467.55
2018-09-18T12:25:57.338Z,99478.00
2018-09-18T12:28:24.897Z,99469.71
2018-09-18T12:30:53.295Z,99472.28
2018-09-18T12:33:21.139Z,99472.65
2018-09-18T12:35:49.652Z,99465.91
2018-09-18T12:38:18.692Z,99472.06
2018-09-18T12:40:47.376Z,99473.32
2018-09-18T12:43:15.811Z,99468.99
2018-09-18T12:45:43.376Z,99457.70
2018-09-18T12:48:12.108Z,99449.41
2018-09-18T12:50:40.411Z,99452.48
2018-09-18T12:53:08.846Z,99454.94
2018-09-18T12:55:36.790Z,99443.48
2018-09-18T12:58:04.327Z,99450.00
2018-09-18T13:00:33.536Z,99435.02
2018-09-18T13:03:01.992Z,99436.52
2018-09-18T13:05:30.507Z,99442.36
2018-09-18T13:07:58.616Z,99440.86
2018-09-18T13:10:26.607Z,99440.77
2018-09-18T13:12:55.277Z,99440.30
2018-09-18T13:15:22.759Z,99434.61
2018-09-18T13:17:52.523Z,99440.69
2018-09-18T13:20:20.688Z,99433.28
2018-09-18T13:22:48.203Z,99432.17
2018-09-18T13:25:18.391Z,99433.28
2018-09-18T13:27:46.864Z,99425.31
2018-09-18T13:30:15.013Z,99432.48
2018-09-18T13:32:43.881Z,99431.09
2018-09-18T13:35:11.419Z,99425.30
2018-09-18T13:37:42.493Z,99425.06
2018-09-18T13:40:12.193Z,99426.44
2018-09-18T13:42:39.864Z,99432.23
2018-09-18T13:45:07.384Z,99429.73
2018-09-18T13:47:37.142Z,99424.48
2018-09-18T13:50:06.524Z,99427.23
2018-09-18T13:52:34.103Z,99435.83
2018-09-18T13:55:02.437Z,99430.58
2018-09-18T13:57:33.725Z,99417.59
2018-09-18T14:00:01.585Z,99426.44
2018-09-18T14:02:29.745Z,99429.73
2018-09-18T14:04:57.585Z,99427.25
2018-09-18T14:07:25.365Z,99423.95
2018-09-18T14:09:53.573Z,99420.08
2018-09-18T14:12:22.310Z,99427.55
2018-09-18T14:14:50.978Z,99422.58
2018-09-18T14:17:18.667Z,99428.90
2018-09-18T14:19:47.000Z,99423.11
2018-09-18T14:22:16.615Z,99432.50
2018-09-18T14:24:44.908Z,99436.61
2018-09-18T14:27:12.432Z,99423.39
2018-09-18T14:29:40.470Z,99430.25
2018-09-18T14:32:08.093Z,99423.63
2018-09-18T14:34:35.887Z,99420.33
2018-09-18T14:37:06.130Z,99418.64
2018-09-18T14:39:33.812Z,99424.97
2018-09-18T14:42:01.622Z,99426.34
2018-09-18T14:44:29.528Z,99426.34
2018-09-18T14:46:57.874Z,99431.33
2018-09-18T14:49:27.413Z,99419.44
2018-09-18T14:51:56.852Z,99419.48
2018-09-18T14:54:25.454Z,99429.72
2018-09-18T14:56:53.079Z,99422.01
2018-09-18T14:59:23.382Z,99421.16
2018-09-18T15:01:51.987Z,99425.03
2018-09-18T15:04:19.544Z,99438.28
2018-09-18T15:06:47.565Z,99437.17
2018-09-18T15:09:15.088Z,99443.23
2018-09-18T15:11:43.240Z,99443.23
2018-09-18T15:14:11.964Z,99448.45
2018-09-18T15:16:40.058Z,99455.57
2018-09-18T15:19:08.274Z,99453.30
2018-09-18T15:21:37.602Z,99457.12
2018-09-18T15:24:07.838Z,99458.52
2018-09-18T15:26:37.591Z,99462.23
2018-09-18T15:29:06.233Z,99463.94
2018-09-18T15:31:34.463Z,99463.41
2018-09-18T15:34:03.456Z,99462.52
2018-09-18T15:36:31.338Z,99467.25
2018-09-18T15:38:59.572Z,99471.09
2018-09-18T15:41:27.120Z,99470.48
2018-09-18T15:43:55.122Z,99475.08
2018-09-18T15:46:23.754Z,99478.72
2018-09-18T15:48:51.348Z,99475.95
2018-09-18T15:51:21.208Z,99477.52
2018-09-18T15:53:48.792Z,99479.38
2018-09-18T15:56:17.446Z,99483.72
2018-09-18T15:58:45.411Z,99484.19
2018-09-18T16:01:13.620Z,99485.78
2018-09-18T16:03:42.729Z,99477.68
2018-09-18T16:06:10.687Z,99493.29
2018-09-18T16:08:38.245Z,99487.44
2018-09-18T16:11:06.349Z,99496.73
2018-09-18T16:13:36.486Z,99489.56
2018-09-18T16:16:04.047Z,99499.39
2018-09-18T16:18:34.381Z,99505.91
2018-09-18T16:21:02.248Z,99500.30
2018-09-18T16:23:30.413Z,99502.96
2018-09-18T16:25:57.932Z,99492.66
2018-09-18T16:28:25.844Z,99493.69
2018-09-18T16:30:53.504Z,99494.69
2018-09-18T16:33:21.017Z,99493.22
2018-09-18T16:35:51.975Z,99507.17
2018-09-18T16:38:19.474Z,99504.07
2018-09-18T16:40:46.984Z,99504.03
2018-09-18T16:43:14.888Z,99508.89
2018-09-18T16:45:43.371Z,99501.70
2018-09-18T16:48:13.036Z,99504.91
2018-09-18T16:50:42.566Z,99509.80
2018-09-18T16:53:10.070Z,99509.44
2018-09-18T16:55:38.194Z,99514.56
2018-09-18T16:58:07.357Z,99512.52
2018-09-18T17:00:35.875Z,99520.10
2018-09-18T17:03:03.416Z,99523.33
2018-09-18T17:05:33.284Z,99524.84
2018-09-18T17:08:03.397Z,99528.55
2018-09-18T17:10:33.444Z,99531.15
2018-09-18T17:13:02.159Z,99536.74
2018-09-18T17:15:31.094Z,99541.80
2018-09-18T17:17:59.250Z,99541.66
2018-09-18T17:20:27.129Z,99544.53
2018-09-18T17:22:55.279Z,99545.23
2018-09-18T17:25:22.773Z,99547.01
2018-09-18T17:27:51.514Z,99549.87
2018-09-18T17:30:19.088Z,99554.89
2018-09-18T17:32:46.636Z,99561.02
2018-09-18T17:35:14.470Z,99562.46
2018-09-18T17:37:41.950Z,99563.06
2018-09-18T17:40:10.355Z,99564.19
2018-09-18T17:42:39.213Z,99569.88
2018-09-18T17:45:07.018Z,99576.06
2018-09-18T17:47:35.468Z,99582.92
2018-09-18T17:50:03.348Z,99595.48
2018-09-18T17:52:31.727Z,99596.75
2018-09-18T17:57:41.505Z,99608.38
2018-09-18T18:00:13.495Z,99614.68
2018-09-18T18:02:41.539Z,99620.48
2018-09-18T18:05:10.071Z,99626.73
2018-09-18T18:07:38.559Z,99631.09
2018-09-18T18:10:06.635Z,99629.76
2018-09-18T18:12:34.209Z,99629.53
2018-09-18T18:15:01.758Z,99630.16
2018-09-18T18:17:30.324Z,99637.90
2018-09-18T18:19:57.876Z,99634.57
2018-09-18T18:22:25.390Z,99642.98
2018-09-18T18:24:52.904Z,99648.15
2018-09-18T18:27:20.451Z,99654.90
2018-09-18T18:29:49.236Z,99655.04
2018-09-18T18:32:17.504Z,99662.94
2018-09-18T18:34:45.059Z,99670.83
2018-09-18T18:37:15.925Z,99675.61
2018-09-18T18:39:44.323Z,99682.83
2018-09-18T18:42:11.840Z,99682.36
2018-09-18T18:44:40.330Z,99699.64
2018-09-18T18:47:08.416Z,99708.00
2018-09-18T18:49:37.181Z,99707.71
2018-09-18T18:52:05.305Z,99715.42
2018-09-18T18:54:33.643Z,99719.38
2018-09-18T18:57:01.356Z,99724.88
2018-09-18T18:59:29.183Z,99730.87
2018-09-18T19:01:56.687Z,99730.52
2018-09-18T19:04:24.269Z,99731.64
2018-09-18T19:06:52.653Z,99741.55
2018-09-18T19:09:21.230Z,99744.55
2018-09-18T19:11:48.936Z,99742.87
2018-09-18T19:14:18.684Z,99751.63
2018-09-18T19:16:46.308Z,99754.10
2018-09-18T19:19:15.149Z,99751.40
2018-09-18T19:21:43.241Z,99755.53
2018-09-18T19:24:10.827Z,99764.06
2018-09-18T19:26:38.488Z,99770.38
2018-09-18T19:29:06.414Z,99767.05
2018-09-18T19:31:37.719Z,99776.02
2018-09-18T19:34:07.306Z,99783.07
2018-09-18T19:36:36.155Z,99782.42
2018-09-18T19:39:04.666Z,99798.36
2018-09-18T19:41:32.207Z,99797.95
2018-09-18T19:44:00.206Z,99797.53
2018-09-18T19:46:27.749Z,99798.38
2018-09-18T19:48:55.615Z,99797.86
2018-09-18T19:51:27.698Z,99799.77
2018-09-18T19:53:55.380Z,99791.62
2018-09-18T19:56:26.818Z,99799.81
2018-09-18T19:58:58.392Z,99800.34
2018-09-18T20:01:26.669Z,99801.92
2018-09-18T20:03:54.232Z,99810.58
2018-09-18T20:06:24.717Z,99806.39
2018-09-18T20:08:52.508Z,99807.97
2018-09-18T20:11:20.042Z,99808.38
2018-09-18T20:13:53.448Z,99811.80
2018-09-18T20:16:22.685Z,99815.97
2018-09-18T20:18:54.362Z,99822.84
2018-09-18T20:21:26.270Z,99819.69
2018-09-18T20:23:55.534Z,99821.02
2018-09-18T20:26:24.520Z,99821.28
2018-09-18T20:28:53.382Z,99825.35
2018-09-18T20:31:22.377Z,99831.20
2018-09-18T20:33:52.156Z,99835.05
2018-09-18T20:36:20.739Z,99838.56
2018-09-18T20:38:48.100Z,99840.41
2018-09-18T20:41:17.941Z,99848.54
2018-09-18T20:46:19.574Z,99852.47
2018-09-18T20:48:47.576Z,99850.67
2018-09-18T20:51:20.538Z,99854.81
2018-09-18T20:53:49.240Z,99860.84
2018-09-18T20:56:17.529Z,99860.41
2018-09-18T20:58:46.469Z,99856.94
2018-09-18T21:01:15.121Z,99860.72
2018-09-18T21:03:42.630Z,99851.20
2018-09-18T21:06:10.170Z,99858.27
2018-09-18T21:08:40.784Z,99859.55
2018-09-18T21:11:09.717Z,99863.58
2018-09-18T21:13:38.717Z,99860.58
2018-09-18T21:16:06.553Z,99863.30
2018-09-18T21:18:35.292Z,99868.95
2018-09-18T21:21:04.033Z,99865.20
2018-09-18T21:23:32.171Z,99869.38
2018-09-18T21:25:59.733Z,99867.62
2018-09-18T21:28:28.379Z,99868.39
2018-09-18T21:30:56.576Z,99871.44
2018-09-18T21:33:24.667Z,99876.84
2018-09-18T21:35:52.160Z,99882.70
2018-09-18T21:38:20.219Z,99885.52
2018-09-18T21:40:47.934Z,99873.77
2018-09-18T21:43:15.655Z,99875.16
2018-09-18T21:45:43.630Z,99881.36
2018-09-18T21:48:11.383Z,99882.12
2018-09-18T21:50:40.170Z,99879.52
2018-09-18T21:53:08.259Z,99883.17
2018-09-18T21:55:36.663Z,99887.13
2018-09-18T21:58:04.820Z,99886.87
2018-09-18T22:00:33.563Z,99888.58
2018-09-18T22:03:01.811Z,99883.88
2018-09-18T22:05:31.333Z,99888.11
2018-09-18T22:08:00.026Z,99888.11
2018-09-18T22:10:28.667Z,99886.97
2018-09-18T22:12:56.276Z,99896.05
2018-09-18T22:15:24.776Z,99893.52
2018-09-18T22:18:00.509Z,99892.48
2018-09-18T22:20:29.873Z,99897.08
2018-09-18T22:22:58.585Z,99892.48
2018-09-18T22:25:26.109Z,99896.08
2018-09-18T22:27:54.060Z,99904.59
2018-09-18T22:30:21.567Z,99906.17
2018-09-18T22:32:49.079Z,99906.52
2018-09-18T22:35:16.755Z,99909.78
2018-09-18T22:37:44.584Z,99906.11
2018-09-18T22:40:12.130Z,99903.43
2018-09-18T22:42:39.880Z,99913.78
2018-09-18T22:45:07.779Z,99909.61
2018-09-18T22:47:36.617Z,99912.48
2018-09-18T22:50:04.133Z,99905.57
2018-09-18T22:52:31.663Z,99916.77
2018-09-18T22:54:59.171Z,99914.09
2018-09-18T22:57:26.744Z,99916.14
2018-09-18T22:59:54.540Z,99923.08
2018-09-18T23:02:23.206Z,99932.03
2018-09-18T23:04:51.245Z,99934.46
2018-09-18T23:07:19.174Z,99934.33
2018-09-18T23:09:47.615Z,99940.66
2018-09-18T23:12:16.375Z,99939.84
2018-09-18T23:14:45.300Z,99944.61
2018-09-18T23:17:12.787Z,99943.33
2018-09-18T23:19:40.929Z,99946.58
2018-09-18T23:22:08.832Z,99951.66
2018-09-18T23:24:38.626Z,99953.76
2018-09-18T23:27:07.230Z,99947.87
2018-09-18T23:29:34.714Z,99952.63
2018-09-18T23:32:02.241Z,99946.09
2018-09-18T23:34:30.403Z,99954.02
2018-09-18T23:36:57.926Z,99953.86
2018-09-18T23:39:25.480Z,99954.20
2018-09-18T23:41:53.706Z,99951.17
2018-09-18T23:44:25.131Z,99952.84
2018-09-18T23:46:53.240Z,99953.53
2018-09-18T23:49:21.957Z,99955.05
2018-09-18T23:51:49.437Z,99959.95
2018-09-18T23:54:16.964Z,99958.77
2018-09-18T23:56:45.340Z,99962.66
2018-09-18T23:59:12.827Z,99961.97
